Time;durP1;ratioP1;P1;durP2;ratioP2;P2;SDS_P1;SDS_P2;PMS_P1;PMS_P2;Temp;Humidity;BMP_temperature;BMP_pressure;BME280_temperature;BME280_humidity;BME280_pressure;Samples;Min_cycle;Max_cycle;Signal;HPM_P1;HPM_P2
2022/09/12 00:00:30;;;;;;;11.43;6.25;;;;;;;;;;5078812;28;20043;-78
2022/09/12 00:02:56;;;;;;;11.50;7.75;;;;;;;;;;5077218;28;20028;-77
2022/09/12 00:05:22;;;;;;;9.38;6.82;;;;;;;;;;5076136;28;20020;-78
2022/09/12 00:07:48;;;;;;;8.98;6.07;;;;;;;;;;5073256;28;20495;-78
2022/09/12 00:10:14;;;;;;;11.90;5.97;;;;;;;;;;5091442;28;20484;-78
2022/09/12 00:12:39;;;;;;;11.75;6.60;;;;;;;;;;5073040;28;20106;-78
2022/09/12 00:15:06;;;;;;;11.80;6.78;;;;;;;;;;5072782;28;20020;-78
2022/09/12 00:17:35;;;;;;;10.90;7.18;;;;;;;;;;5073470;28;20028;-77
2022/09/12 00:20:01;;;;;;;16.48;6.85;;;;;;;;;;5090220;28;20032;-77
2022/09/12 00:22:26;;;;;;;11.82;7.53;;;;;;;;;;5072399;28;20024;-77
2022/09/12 00:24:52;;;;;;;16.45;7.15;;;;;;;;;;5060357;28;20534;-76
2022/09/12 00:27:17;;;;;;;11.57;6.38;;;;;;;;;;5070141;28;20032;-76
2022/09/12 00:29:43;;;;;;;12.07;6.88;;;;;;;;;;5052136;28;20036;-76
2022/09/12 00:32:08;;;;;;;12.00;6.95;;;;;;;;;;5069992;28;20127;-76
2022/09/12 00:34:35;;;;;;;11.85;6.70;;;;;;;;;;5051563;28;20033;-76
2022/09/12 00:37:00;;;;;;;9.95;6.47;;;;;;;;;;5051689;28;20033;-77
2022/09/12 00:39:26;;;;;;;10.55;7.18;;;;;;;;;;5070104;28;20032;-77
2022/09/12 00:41:52;;;;;;;11.32;6.45;;;;;;;;;;5051570;28;20024;-75
2022/09/12 00:44:20;;;;;;;9.70;6.80;;;;;;;;;;5070197;28;20028;-77
2022/09/12 00:47:13;;;;;;;10.13;6.57;;;;;;;;;;5070165;28;20020;-77
2022/09/12 00:49:53;;;;;;;11.35;7.13;;;;;;;;;;5051856;28;20028;-75
2022/09/12 00:52:33;;;;;;;10.77;6.93;;;;;;;;;;5052078;28;20151;-75
2022/09/12 00:55:14;;;;;;;14.50;7.38;;;;;;;;;;5051549;28;20127;-76
2022/09/12 00:57:48;;;;;;;12.05;6.88;;;;;;;;;;5051799;28;20236;-76
2022/09/12 01:00:16;;;;;;;12.90;7.20;;;;;;;;;;5051792;28;20036;-76
2022/09/12 01:02:44;;;;;;;13.15;6.97;;;;;;;;;;5051794;28;20052;-76
2022/09/12 01:05:11;;;;;;;12.40;7.10;;;;;;;;;;5051691;28;20024;-76
2022/09/12 01:07:38;;;;;;;14.50;7.63;;;;;;;;;;5073049;28;20032;-76
2022/09/12 01:10:06;;;;;;;13.30;7.43;;;;;;;;;;5055340;28;20460;-75
2022/09/12 01:12:33;;;;;;;14.80;6.97;;;;;;;;;;5055561;28;20031;-78
2022/09/12 01:14:58;;;;;;;11.32;6.60;;;;;;;;;;5055131;28;20028;-79
2022/09/12 01:17:30;;;;;;;11.15;7.30;;;;;;;;;;5056076;28;20468;-77
2022/09/12 01:20:21;;;;;;;13.15;6.53;;;;;;;;;;5073241;28;20019;-78
2022/09/12 01:22:50;;;;;;;11.48;6.55;;;;;;;;;;5055485;28;20127;-78
2022/09/12 01:25:30;;;;;;;13.50;7.18;;;;;;;;;;5088176;28;20023;-78
2022/09/12 01:28:24;;;;;;;10.60;7.00;;;;;;;;;;5075284;28;20110;-79
2022/09/12 01:31:23;;;;;;;9.00;6.57;;;;;;;;;;5075047;28;20048;-78
2022/09/12 01:34:01;;;;;;;11.18;7.13;;;;;;;;;;5055495;28;20361;-77
2022/09/12 01:36:38;;;;;;;14.30;7.30;;;;;;;;;;5075524;28;20021;-79
2022/09/12 01:39:12;;;;;;;11.90;7.28;;;;;;;;;;5075115;28;20028;-79
2022/09/12 01:41:53;;;;;;;14.77;7.43;;;;;;;;;;5075443;28;20031;-80
2022/09/12 01:44:21;;;;;;;10.27;6.80;;;;;;;;;;5075379;28;20016;-79
2022/09/12 01:46:56;;;;;;;12.48;7.68;;;;;;;;;;5074806;28;20024;-78
2022/09/12 01:49:28;;;;;;;14.77;8.10;;;;;;;;;;5074737;28;20480;-78
2022/09/12 01:52:03;;;;;;;12.82;6.70;;;;;;;;;;5093087;28;20099;-79
2022/09/12 01:54:41;;;;;;;14.48;7.47;;;;;;;;;;5074852;28;20115;-79
2022/09/12 01:57:18;;;;;;;11.98;6.78;;;;;;;;;;5074828;28;20066;-78
2022/09/12 01:59:48;;;;;;;13.50;7.28;;;;;;;;;;5075007;28;20089;-78
2022/09/12 02:02:27;;;;;;;11.63;6.65;;;;;;;;;;5074938;28;20078;-78
2022/09/12 02:05:21;;;;;;;11.40;6.68;;;;;;;;;;5093280;28;20488;-78
2022/09/12 02:07:55;;;;;;;12.85;7.55;;;;;;;;;;5093058;28;20028;-79
2022/09/12 02:10:29;;;;;;;12.07;7.28;;;;;;;;;;5093074;28;20023;-79
2022/09/12 02:13:13;;;;;;;14.68;7.63;;;;;;;;;;5075281;28;20016;-77
2022/09/12 02:15:49;;;;;;;11.32;7.28;;;;;;;;;;5094865;28;20050;-78
2022/09/12 02:18:17;;;;;;;11.57;6.22;;;;;;;;;;5074469;28;20077;-78
2022/09/12 02:20:45;;;;;;;11.48;7.20;;;;;;;;;;5074517;28;20122;-78
2022/09/12 02:23:16;;;;;;;10.23;7.00;;;;;;;;;;5074290;28;20039;-79
2022/09/12 02:25:44;;;;;;;12.55;7.75;;;;;;;;;;5056067;28;20041;-78
2022/09/12 02:28:15;;;;;;;10.73;6.70;;;;;;;;;;5054036;28;20099;-78
2022/09/12 02:30:58;;;;;;;11.30;7.15;;;;;;;;;;5050884;28;20056;-78
2022/09/12 02:33:34;;;;;;;13.38;7.90;;;;;;;;;;5052315;28;20107;-78
2022/09/12 02:36:14;;;;;;;10.80;6.60;;;;;;;;;;5050571;28;20032;-79
2022/09/12 02:38:44;;;;;;;13.38;7.35;;;;;;;;;;5051003;28;20025;-78
2022/09/12 02:41:13;;;;;;;12.20;7.13;;;;;;;;;;5050355;28;20016;-79
2022/09/12 02:43:39;;;;;;;11.10;6.93;;;;;;;;;;5050771;28;20017;-78
2022/09/12 02:46:09;;;;;;;12.15;7.70;;;;;;;;;;5050398;28;20025;-78
2022/09/12 02:48:39;;;;;;;13.18;7.88;;;;;;;;;;5051935;28;20025;-78
2022/09/12 02:51:05;;;;;;;11.57;7.95;;;;;;;;;;5051845;28;20012;-79
2022/09/12 02:53:31;;;;;;;15.50;8.00;;;;;;;;;;5051755;28;20492;-78
2022/09/12 02:55:57;;;;;;;16.65;8.13;;;;;;;;;;5051638;28;20029;-78
2022/09/12 02:58:28;;;;;;;16.10;8.10;;;;;;;;;;5051773;28;20025;-79
2022/09/12 03:01:00;;;;;;;20.53;9.27;;;;;;;;;;5050205;28;20024;-79
2022/09/12 03:03:38;;;;;;;13.55;7.40;;;;;;;;;;5050151;28;20465;-79
2022/09/12 03:06:34;;;;;;;18.60;9.02;;;;;;;;;;5051207;28;20047;-79
2022/09/12 03:09:45;;;;;;;14.73;8.10;;;;;;;;;;5050061;28;20033;-79
2022/09/12 03:12:45;;;;;;;17.35;9.20;;;;;;;;;;4992502;28;20032;-79
2022/09/12 03:15:50;;;;;;;13.77;8.10;;;;;;;;;;5046431;28;20033;-79
2022/09/12 03:18:30;;;;;;;15.30;7.53;;;;;;;;;;5050966;28;20040;-78
2022/09/12 03:21:11;;;;;;;12.40;7.65;;;;;;;;;;5049966;28;20029;-79
2022/09/12 03:23:42;;;;;;;13.40;7.25;;;;;;;;;;5052167;28;20060;-78
2022/09/12 03:26:34;;;;;;;18.25;9.48;;;;;;;;;;5070951;28;20021;-79
2022/09/12 03:29:02;;;;;;;14.52;8.63;;;;;;;;;;5069040;28;20067;-77
2022/09/12 03:31:28;;;;;;;14.25;7.80;;;;;;;;;;5069546;28;20075;-78
2022/09/12 03:33:53;;;;;;;15.57;8.55;;;;;;;;;;5053210;28;20052;-76
2022/09/12 03:36:23;;;;;;;15.63;8.77;;;;;;;;;;5070035;28;20495;-79
2022/09/12 03:38:48;;;;;;;15.73;8.35;;;;;;;;;;5070029;28;20040;-78
2022/09/12 03:41:14;;;;;;;14.27;8.18;;;;;;;;;;5069203;28;20444;-78
2022/09/12 03:43:40;;;;;;;17.17;8.38;;;;;;;;;;5069470;28;20048;-79
2022/09/12 03:46:06;;;;;;;17.15;8.13;;;;;;;;;;5069232;28;20036;-78
2022/09/12 03:48:31;;;;;;;12.10;7.65;;;;;;;;;;5069658;28;20086;-78
2022/09/12 03:51:05;;;;;;;14.18;8.70;;;;;;;;;;5070402;28;20389;-78
2022/09/12 03:53:32;;;;;;;18.25;8.13;;;;;;;;;;5070616;28;20103;-78
2022/09/12 03:55:57;;;;;;;16.63;8.48;;;;;;;;;;5070796;28;20036;-80
2022/09/12 03:58:24;;;;;;;14.73;8.20;;;;;;;;;;5069206;28;20032;-78
2022/09/12 04:00:50;;;;;;;12.90;7.90;;;;;;;;;;5069766;28;20077;-80
2022/09/12 04:03:18;;;;;;;15.88;8.55;;;;;;;;;;5071507;28;20052;-79
2022/09/12 04:05:43;;;;;;;15.68;9.02;;;;;;;;;;5073013;28;20097;-79
2022/09/12 04:08:09;;;;;;;15.20;8.68;;;;;;;;;;5071090;28;20457;-77
2022/09/12 04:10:34;;;;;;;18.42;9.35;;;;;;;;;;5074735;28;20490;-77
2022/09/12 04:13:00;;;;;;;13.52;8.02;;;;;;;;;;5076172;28;20020;-79
2022/09/12 04:15:25;;;;;;;14.98;9.07;;;;;;;;;;5072808;28;20056;-81
2022/09/12 04:17:51;;;;;;;14.20;9.27;;;;;;;;;;5074952;28;20024;-79
2022/09/12 04:20:17;;;;;;;16.90;9.10;;;;;;;;;;5071138;28;20031;-78
2022/09/12 04:22:42;;;;;;;19.13;9.05;;;;;;;;;;5069332;28;20075;-79
2022/09/12 04:25:08;;;;;;;19.02;8.35;;;;;;;;;;5055218;28;20031;-78
2022/09/12 04:27:34;;;;;;;13.95;8.40;;;;;;;;;;5050630;28;20558;-78
2022/09/12 04:30:01;;;;;;;16.90;9.40;;;;;;;;;;5052311;28;20052;-79
2022/09/12 04:32:28;;;;;;;13.15;8.73;;;;;;;;;;5070417;28;20052;-80
2022/09/12 04:34:53;;;;;;;25.15;9.93;;;;;;;;;;5052621;28;20032;-79
2022/09/12 04:37:19;;;;;;;20.63;9.13;;;;;;;;;;5052136;28;20369;-78
2022/09/12 04:39:44;;;;;;;17.67;10.43;;;;;;;;;;5052000;28;20028;-79
2022/09/12 04:42:10;;;;;;;21.73;10.02;;;;;;;;;;5054281;28;20024;-76
2022/09/12 04:44:36;;;;;;;17.45;9.15;;;;;;;;;;5074224;28;20429;-78
2022/09/12 04:47:02;;;;;;;15.20;9.63;;;;;;;;;;5056019;28;20027;-79
2022/09/12 04:49:27;;;;;;;14.38;9.13;;;;;;;;;;5055786;28;20024;-78
2022/09/12 04:51:54;;;;;;;15.75;8.35;;;;;;;;;;5056066;28;20411;-79
2022/09/12 04:54:19;;;;;;;14.75;8.40;;;;;;;;;;5055851;28;20064;-79
2022/09/12 04:56:50;;;;;;;14.35;8.23;;;;;;;;;;5073957;28;20560;-80
2022/09/12 04:59:17;;;;;;;14.20;9.55;;;;;;;;;;5055758;28;20504;-78
2022/09/12 05:01:42;;;;;;;15.70;9.48;;;;;;;;;;5073842;28;20052;-79
2022/09/12 05:04:12;;;;;;;15.65;9.95;;;;;;;;;;5054985;28;20535;-78
2022/09/12 05:06:39;;;;;;;14.60;8.07;;;;;;;;;;5062444;28;20050;-78
2022/09/12 05:09:07;;;;;;;16.80;9.32;;;;;;;;;;5092031;28;20483;-79
2022/09/12 05:11:35;;;;;;;12.30;7.80;;;;;;;;;;5074825;28;20047;-78
2022/09/12 05:14:01;;;;;;;28.52;11.45;;;;;;;;;;5092173;28;20225;-79
2022/09/12 05:16:27;;;;;;;15.13;8.88;;;;;;;;;;5093249;28;20028;-81
2022/09/12 05:18:55;;;;;;;20.35;8.23;;;;;;;;;;5075132;28;20039;-80
2022/09/12 05:21:24;;;;;;;13.02;8.07;;;;;;;;;;5074891;28;20028;-78
2022/09/12 05:23:54;;;;;;;16.75;8.68;;;;;;;;;;5084797;28;20165;-78
2022/09/12 05:26:20;;;;;;;15.80;8.40;;;;;;;;;;5071408;28;20744;-80
2022/09/12 05:28:48;;;;;;;15.35;9.00;;;;;;;;;;5074287;28;20471;-80
2022/09/12 05:31:22;;;;;;;16.08;8.80;;;;;;;;;;5074293;28;20479;-78
2022/09/12 05:33:53;;;;;;;15.20;8.23;;;;;;;;;;5090993;28;20043;-78
2022/09/12 05:36:20;;;;;;;14.05;8.73;;;;;;;;;;5074917;28;20074;-79
2022/09/12 05:38:46;;;;;;;16.88;8.90;;;;;;;;;;5053324;28;20028;-78
2022/09/12 05:41:14;;;;;;;19.23;9.43;;;;;;;;;;5064518;28;20093;-77
2022/09/12 05:43:41;;;;;;;14.15;8.57;;;;;;;;;;5067892;28;20025;-79
2022/09/12 05:46:11;;;;;;;16.40;9.02;;;;;;;;;;5089652;28;20073;-77
2022/09/12 05:48:40;;;;;;;14.43;8.98;;;;;;;;;;5089494;28;20040;-79
2022/09/12 05:51:08;;;;;;;20.25;8.93;;;;;;;;;;5070624;28;20043;-79
2022/09/12 05:53:35;;;;;;;25.42;18.65;;;;;;;;;;5087578;28;20121;-80
2022/09/12 05:56:16;;;;;;;23.15;12.77;;;;;;;;;;5089429;28;20028;-79
2022/09/12 05:58:44;;;;;;;16.30;10.05;;;;;;;;;;5068140;28;20096;-80
2022/09/12 06:01:12;;;;;;;14.75;8.18;;;;;;;;;;5080405;28;20023;-79
2022/09/12 06:03:45;;;;;;;14.32;8.50;;;;;;;;;;5073156;28;20020;-79
2022/09/12 06:06:12;;;;;;;15.43;9.13;;;;;;;;;;5091702;28;20035;-79
2022/09/12 06:08:43;;;;;;;20.65;10.45;;;;;;;;;;5069608;28;20496;-79
2022/09/12 06:11:11;;;;;;;15.05;9.05;;;;;;;;;;5072320;28;20081;-79
2022/09/12 06:13:41;;;;;;;17.77;8.88;;;;;;;;;;5077815;28;20031;-79
2022/09/12 06:16:28;;;;;;;15.27;9.85;;;;;;;;;;5063606;28;20036;-77
2022/09/12 06:18:56;;;;;;;16.00;8.43;;;;;;;;;;5070473;28;20044;-76
2022/09/12 06:21:23;;;;;;;14.73;8.25;;;;;;;;;;5070035;28;20024;-80
2022/09/12 06:23:49;;;;;;;18.50;10.13;;;;;;;;;;5064650;28;20024;-78
2022/09/12 06:26:17;;;;;;;18.65;9.80;;;;;;;;;;5066853;28;20444;-79
2022/09/12 06:28:43;;;;;;;20.00;8.95;;;;;;;;;;5064694;28;20016;-78
2022/09/12 06:31:30;;;;;;;14.20;7.97;;;;;;;;;;5084409;28;20066;-79
2022/09/12 06:33:59;;;;;;;27.58;10.32;;;;;;;;;;5061330;28;20038;-82
2022/09/12 06:36:28;;;;;;;21.20;9.50;;;;;;;;;;5049640;28;20044;-79
2022/09/12 06:38:59;;;;;;;16.50;9.65;;;;;;;;;;5034955;28;20055;-79
2022/09/12 06:41:25;;;;;;;;;;;;;;;;;;5029241;28;20049;-79
2022/09/12 06:43:52;;;;;;;16.30;10.27;;;;;;;;;;5039775;28;19920;-77
2022/09/12 06:46:17;;;;;;;14.77;8.88;;;;;;;;;;5027349;28;20056;-80
2022/09/12 06:48:43;;;;;;;20.15;9.38;;;;;;;;;;5040644;28;20060;-81
2022/09/12 06:51:12;;;;;;;16.40;10.25;;;;;;;;;;5044058;28;20056;-79
2022/09/12 06:53:38;;;;;;;17.67;8.32;;;;;;;;;;5033570;28;20029;-79
2022/09/12 06:56:06;;;;;;;16.45;9.00;;;;;;;;;;5023807;28;20622;-78
2022/09/12 06:58:33;;;;;;;21.20;9.93;;;;;;;;;;5026399;28;20472;-79
2022/09/12 07:01:08;;;;;;;18.45;9.48;;;;;;;;;;5027941;28;20032;-79
2022/09/12 07:03:34;;;;;;;17.42;10.57;;;;;;;;;;5027472;28;20025;-79
2022/09/12 07:06:14;;;;;;;13.18;8.80;;;;;;;;;;5046594;28;20032;-80
2022/09/12 07:08:40;;;;;;;17.10;9.35;;;;;;;;;;5024871;28;20376;-79
2022/09/12 07:11:14;;;;;;;17.60;9.90;;;;;;;;;;5007335;28;20037;-80
2022/09/12 07:13:41;;;;;;;14.30;9.07;;;;;;;;;;5024035;28;20516;-80
2022/09/12 07:16:07;;;;;;;17.45;9.32;;;;;;;;;;5017129;28;20048;-79
2022/09/12 07:18:34;;;;;;;18.77;9.23;;;;;;;;;;5002296;28;20083;-79
2022/09/12 07:21:01;;;;;;;17.85;9.23;;;;;;;;;;5018821;28;20072;-79
2022/09/12 07:23:28;;;;;;;21.27;10.15;;;;;;;;;;5046939;28;20024;-79
2022/09/12 07:25:55;;;;;;;23.90;9.65;;;;;;;;;;5020992;28;20036;-79
2022/09/12 07:28:23;;;;;;;14.18;9.05;;;;;;;;;;5022344;28;20036;-79
2022/09/12 07:30:49;;;;;;;18.30;10.10;;;;;;;;;;5017598;28;20037;-79
2022/09/12 07:33:15;;;;;;;29.90;10.82;;;;;;;;;;5022870;28;20034;-79
2022/09/12 07:35:41;;;;;;;23.67;9.70;;;;;;;;;;5020937;28;20033;-79
2022/09/12 07:38:08;;;;;;;16.55;10.00;;;;;;;;;;5023574;28;20037;-79
2022/09/12 07:40:33;;;;;;;13.35;8.13;;;;;;;;;;5005779;28;20061;-80
2022/09/12 07:42:59;;;;;;;16.95;9.73;;;;;;;;;;5017799;28;20064;-78
2022/09/12 07:45:25;;;;;;;15.10;9.93;;;;;;;;;;5025160;28;20115;-78
2022/09/12 07:47:53;;;;;;;19.25;9.23;;;;;;;;;;5024280;28;20357;-79
2022/09/12 07:50:18;;;;;;;14.60;9.15;;;;;;;;;;5012774;28;20040;-78
2022/09/12 07:52:44;;;;;;;18.17;9.02;;;;;;;;;;5023346;28;20029;-80
2022/09/12 07:55:09;;;;;;;15.85;8.88;;;;;;;;;;5023112;28;20120;-78
2022/09/12 07:57:35;;;;;;;16.33;9.88;;;;;;;;;;5021459;28;20033;-80
2022/09/12 08:00:00;;;;;;;14.23;9.95;;;;;;;;;;5020805;28;20025;-79
2022/09/12 08:02:26;;;;;;;15.10;8.88;;;;;;;;;;5018657;28;20486;-79
2022/09/12 08:04:52;;;;;;;14.70;8.57;;;;;;;;;;5030971;28;20022;-81
2022/09/12 08:07:18;;;;;;;17.13;8.77;;;;;;;;;;5022539;28;20122;-80
2022/09/12 08:09:43;;;;;;;13.95;8.90;;;;;;;;;;5005871;28;20133;-82
2022/09/12 08:12:09;;;;;;;16.10;8.63;;;;;;;;;;5038201;28;20083;-80
2022/09/12 08:15:05;;;;;;;18.38;9.25;;;;;;;;;;5021695;28;20025;-78
2022/09/12 08:17:31;;;;;;;14.63;8.93;;;;;;;;;;5031471;28;20033;-81
2022/09/12 08:19:57;;;;;;;16.75;9.27;;;;;;;;;;5039170;28;20021;-81
2022/09/12 08:22:24;;;;;;;19.10;9.10;;;;;;;;;;5037697;28;20021;-80
2022/09/12 08:24:50;;;;;;;15.40;10.13;;;;;;;;;;5040528;28;20109;-80
2022/09/12 08:27:15;;;;;;;22.27;10.20;;;;;;;;;;5028318;28;20030;-81
2022/09/12 08:29:41;;;;;;;19.88;9.23;;;;;;;;;;5037933;28;20147;-80
2022/09/12 08:32:07;;;;;;;19.52;9.93;;;;;;;;;;5045741;28;20485;-78
2022/09/12 08:34:33;;;;;;;20.27;9.43;;;;;;;;;;5051489;28;20044;-81
2022/09/12 08:36:59;;;;;;;15.23;9.35;;;;;;;;;;5032505;28;20029;-80
2022/09/12 08:39:24;;;;;;;17.90;10.43;;;;;;;;;;5049903;28;20029;-80
2022/09/12 08:42:23;;;;;;;14.63;9.77;;;;;;;;;;5022767;28;20556;-79
2022/09/12 08:44:59;;;;;;;23.80;9.80;;;;;;;;;;5036077;28;20389;-80
2022/09/12 08:47:40;;;;;;;13.15;8.85;;;;;;;;;;5029883;28;20032;-79
2022/09/12 08:50:12;;;;;;;16.13;9.37;;;;;;;;;;5034233;28;20028;-80
2022/09/12 08:53:05;;;;;;;15.18;9.55;;;;;;;;;;5048086;28;20104;-79
2022/09/12 08:55:43;;;;;;;16.55;9.57;;;;;;;;;;5028597;28;20032;-78
2022/09/12 08:58:27;;;;;;;15.90;9.55;;;;;;;;;;5046390;28;20112;-79
2022/09/12 09:00:58;;;;;;;16.50;9.38;;;;;;;;;;5047904;28;20029;-79
2022/09/12 09:03:25;;;;;;;17.05;9.90;;;;;;;;;;5030209;28;20362;-78
2022/09/12 09:06:09;;;;;;;13.13;8.85;;;;;;;;;;5031101;28;20480;-78
2022/09/12 09:08:47;;;;;;;22.38;9.95;;;;;;;;;;5021963;28;20120;-79
2022/09/12 09:11:18;;;;;;;14.32;9.73;;;;;;;;;;5029975;28;20078;-80
2022/09/12 09:16:35;;;;;;;19.25;8.70;;;;;;;;;;5038756;28;20563;-79
2022/09/12 09:19:05;;;;;;;12.02;8.75;;;;;;;;;;5026454;28;20032;-80
2022/09/12 09:21:39;;;;;;;16.42;9.75;;;;;;;;;;5025888;28;20025;-80
2022/09/12 09:24:12;;;;;;;13.90;8.45;;;;;;;;;;5030066;28;20029;-80
2022/09/12 09:26:40;;;;;;;12.07;7.82;;;;;;;;;;5029048;28;20534;-79
2022/09/12 09:29:21;;;;;;;15.48;8.88;;;;;;;;;;5038751;28;20127;-80
2022/09/12 09:31:50;;;;;;;21.25;10.63;;;;;;;;;;5054850;28;20592;-80
2022/09/12 09:34:21;;;;;;;15.32;7.60;;;;;;;;;;5037612;28;20067;-79
2022/09/12 09:36:56;;;;;;;8.48;6.18;;;;;;;;;;5034488;28;20351;-80
2022/09/12 09:39:42;;;;;;;8.20;6.13;;;;;;;;;;5035077;28;20044;-77
2022/09/12 09:42:42;;;;;;;8.77;4.90;;;;;;;;;;5058045;28;20040;-80
2022/09/12 09:45:15;;;;;;;6.82;5.57;;;;;;;;;;5062152;28;20049;-80
2022/09/12 09:47:47;;;;;;;13.07;6.13;;;;;;;;;;5044626;28;20035;-80
2022/09/12 09:50:15;;;;;;;11.75;6.22;;;;;;;;;;5063877;28;20064;-80
2022/09/12 09:52:42;;;;;;;6.80;5.90;;;;;;;;;;5061712;28;20036;-79
2022/09/12 09:55:15;;;;;;;9.30;6.30;;;;;;;;;;5028096;28;20021;-78
2022/09/12 09:57:43;;;;;;;7.85;5.07;;;;;;;;;;5038833;28;20492;-80
2022/09/12 10:00:31;;;;;;;10.30;6.45;;;;;;;;;;5056244;28;20040;-80
2022/09/12 10:03:06;;;;;;;7.00;4.60;;;;;;;;;;5043198;28;20012;-80
2022/09/12 10:05:43;;;;;;;17.88;7.57;;;;;;;;;;5065190;28;20021;-79
2022/09/12 10:08:09;;;;;;;4.18;3.75;;;;;;;;;;5041697;28;20028;-79
2022/09/12 10:10:34;;;;;;;6.93;4.47;;;;;;;;;;5014463;28;20029;-79
2022/09/12 10:13:15;;;;;;;7.43;4.63;;;;;;;;;;5030063;28;20036;-80
2022/09/12 10:15:56;;;;;;;5.73;3.80;;;;;;;;;;5018056;28;20036;-80
2022/09/12 10:18:41;;;;;;;5.77;3.60;;;;;;;;;;5050106;28;20326;-78
2022/09/12 10:21:38;;;;;;;12.57;6.10;;;;;;;;;;5050542;28;20031;-77
2022/09/12 10:24:26;;;;;;;6.72;4.45;;;;;;;;;;5049346;28;20056;-80
2022/09/12 10:27:11;;;;;;;9.40;5.55;;;;;;;;;;5049229;28;20072;-78
2022/09/12 10:29:53;;;;;;;7.78;6.10;;;;;;;;;;5018833;28;20029;-79
2022/09/12 10:32:40;;;;;;;9.63;5.22;;;;;;;;;;5051023;28;20072;-80
2022/09/12 10:35:14;;;;;;;6.13;4.32;;;;;;;;;;5032852;28;20033;-80
2022/09/12 10:37:49;;;;;;;7.00;4.28;;;;;;;;;;5033909;28;20037;-81
2022/09/12 10:40:31;;;;;;;4.80;4.10;;;;;;;;;;5032866;28;20029;-80
2022/09/12 10:42:59;;;;;;;6.18;3.58;;;;;;;;;;5024477;28;20086;-79
2022/09/12 10:45:34;;;;;;;4.40;2.95;;;;;;;;;;5030228;28;20120;-80
2022/09/12 10:48:21;;;;;;;6.30;3.83;;;;;;;;;;5047551;28;20384;-80
2022/09/12 10:50:47;;;;;;;3.83;3.25;;;;;;;;;;5030751;28;20033;-80
2022/09/12 10:53:20;;;;;;;3.92;3.35;;;;;;;;;;5031543;28;20079;-80
2022/09/12 10:56:03;;;;;;;4.13;3.72;;;;;;;;;;5048597;28;20025;-80
2022/09/12 10:58:52;;;;;;;3.53;3.17;;;;;;;;;;5050880;28;20449;-79
2022/09/12 11:01:41;;;;;;;3.78;3.38;;;;;;;;;;5034939;28;20029;-77
2022/09/12 11:04:37;;;;;;;4.38;3.08;;;;;;;;;;5024825;28;20776;-79
2022/09/12 11:07:27;;;;;;;6.65;4.45;;;;;;;;;;5034234;28;20036;-79
2022/09/12 11:10:12;;;;;;;4.65;3.58;;;;;;;;;;5030934;28;20032;-78
2022/09/12 11:12:56;;;;;;;6.25;3.58;;;;;;;;;;5018882;28;20048;-78
2022/09/12 11:15:58;;;;;;;5.53;4.43;;;;;;;;;;5031351;28;20032;-79
2022/09/12 11:18:52;;;;;;;6.53;4.15;;;;;;;;;;5029365;28;20042;-78
2022/09/12 11:21:23;;;;;;;6.40;4.32;;;;;;;;;;5031781;28;20029;-76
2022/09/12 11:24:08;;;;;;;11.48;5.00;;;;;;;;;;5030882;28;20038;-77
2022/09/12 11:26:59;;;;;;;6.28;5.28;;;;;;;;;;5048831;28;20547;-77
2022/09/12 11:29:44;;;;;;;7.85;5.78;;;;;;;;;;5031293;28;20036;-80
2022/09/12 11:32:28;;;;;;;12.60;5.07;;;;;;;;;;5037442;28;20048;-79
2022/09/12 11:35:23;;;;;;;6.10;4.20;;;;;;;;;;5053190;28;20070;-78
2022/09/12 11:38:21;;;;;;;7.05;5.05;;;;;;;;;;5026078;28;20063;-77
2022/09/12 11:40:54;;;;;;;6.72;4.60;;;;;;;;;;5025269;28;20053;-78
2022/09/12 11:43:45;;;;;;;6.68;5.25;;;;;;;;;;5037181;28;20025;-80
2022/09/12 11:46:17;;;;;;;10.37;5.20;;;;;;;;;;5042731;28;20037;-78
2022/09/12 11:48:58;;;;;;;5.80;4.00;;;;;;;;;;5035139;28;20373;-80
2022/09/12 11:51:40;;;;;;;9.77;4.85;;;;;;;;;;5023508;28;20111;-77
2022/09/12 11:54:10;;;;;;;5.93;4.68;;;;;;;;;;5049857;28;20090;-80
2022/09/12 11:56:42;;;;;;;5.70;4.00;;;;;;;;;;5032219;28;20064;-78
2022/09/12 11:59:45;;;;;;;7.55;4.68;;;;;;;;;;5046566;28;20045;-78
2022/09/12 12:02:19;;;;;;;7.38;4.55;;;;;;;;;;5030497;28;20120;-79
2022/09/12 12:05:02;;;;;;;9.25;4.63;;;;;;;;;;5025338;28;20020;-77
2022/09/12 12:07:39;;;;;;;12.05;6.95;;;;;;;;;;5030578;28;20132;-78
2022/09/12 12:10:04;;;;;;;12.20;7.70;;;;;;;;;;5031697;28;20090;-80
2022/09/12 12:12:30;;;;;;;9.45;4.65;;;;;;;;;;5030981;28;20029;-79
2022/09/12 12:14:57;;;;;;;6.35;3.83;;;;;;;;;;5047665;28;20094;-79
2022/09/12 12:17:25;;;;;;;9.70;4.97;;;;;;;;;;5047207;28;20195;-78
2022/09/12 12:20:03;;;;;;;6.15;3.53;;;;;;;;;;5014441;28;20683;-80
2022/09/12 12:22:29;;;;;;;42.70;21.50;;;;;;;;;;5026262;28;20021;-79
2022/09/12 12:25:11;;;;;;;3.40;3.10;;;;;;;;;;5043521;28;20029;-78
2022/09/12 12:27:52;;;;;;;6.57;4.32;;;;;;;;;;5027693;28;20032;-78
2022/09/12 12:30:30;;;;;;;;;;;;;;;;;;5044360;28;20512;-80
2022/09/12 12:33:24;;;;;;;19.48;11.38;;;;;;;;;;5048646;28;19920;-79
2022/09/12 12:36:03;;;;;;;8.23;4.15;;;;;;;;;;5027898;28;20111;-79
2022/09/12 12:38:34;;;;;;;6.53;3.83;;;;;;;;;;5036719;28;20048;-81
2022/09/12 12:41:18;;;;;;;5.97;3.60;;;;;;;;;;5043247;28;20048;-79
2022/09/12 12:43:45;;;;;;;8.50;4.57;;;;;;;;;;5055994;28;20021;-77
2022/09/12 12:46:14;;;;;;;9.18;5.05;;;;;;;;;;5046363;28;20036;-78
2022/09/12 12:48:53;;;;;;;6.13;3.50;;;;;;;;;;5049059;28;20198;-79
2022/09/12 12:51:30;;;;;;;5.20;3.78;;;;;;;;;;5025788;28;20025;-79
2022/09/12 12:53:57;;;;;;;12.40;7.13;;;;;;;;;;5030123;28;20024;-79
2022/09/12 12:56:32;;;;;;;15.50;7.68;;;;;;;;;;5028872;28;20029;-78
2022/09/12 12:59:11;;;;;;;9.27;4.60;;;;;;;;;;5047376;28;20029;-78
2022/09/12 13:01:43;;;;;;;6.55;4.30;;;;;;;;;;5045228;28;20033;-79
2022/09/12 13:04:17;;;;;;;9.65;5.82;;;;;;;;;;5038894;28;20036;-78
2022/09/12 13:06:45;;;;;;;12.63;5.05;;;;;;;;;;5035405;28;20032;-79
2022/09/12 13:09:26;;;;;;;5.47;4.50;;;;;;;;;;5033441;28;20120;-79
2022/09/12 13:12:03;;;;;;;11.55;5.97;;;;;;;;;;5033517;28;20033;-78
2022/09/12 13:15:00;;;;;;;9.93;4.70;;;;;;;;;;5027968;28;20461;-80
2022/09/12 13:17:32;;;;;;;5.28;3.80;;;;;;;;;;5035166;28;20419;-80
2022/09/12 13:20:18;;;;;;;5.10;3.83;;;;;;;;;;5029657;28;20044;-79
2022/09/12 13:22:46;;;;;;;6.85;4.03;;;;;;;;;;5036942;28;20020;-81
2022/09/12 13:25:23;;;;;;;6.80;4.32;;;;;;;;;;5033211;28;20017;-79
2022/09/12 13:28:01;;;;;;;6.50;4.38;;;;;;;;;;5035748;28;20017;-78
2022/09/12 13:30:32;;;;;;;12.93;5.72;;;;;;;;;;5044379;28;20064;-80
2022/09/12 13:33:08;;;;;;;7.90;4.47;;;;;;;;;;5033736;28;20658;-79
2022/09/12 13:36:16;;;;;;;4.45;3.58;;;;;;;;;;5032707;28;20115;-79
2022/09/12 13:39:01;;;;;;;7.53;4.70;;;;;;;;;;5024198;28;20031;-79
2022/09/12 13:41:29;;;;;;;4.47;3.17;;;;;;;;;;5030920;28;20108;-80
2022/09/12 13:43:55;;;;;;;4.40;3.65;;;;;;;;;;5022750;28;20037;-79
2022/09/12 13:46:29;;;;;;;13.13;5.70;;;;;;;;;;5039492;28;20163;-78
2022/09/12 13:48:56;;;;;;;7.05;3.80;;;;;;;;;;5044196;28;20429;-79
2022/09/12 13:51:28;;;;;;;6.40;4.07;;;;;;;;;;5051208;28;20029;-80
2022/09/12 13:53:59;;;;;;;5.68;3.42;;;;;;;;;;5017977;28;20532;-79
2022/09/12 13:56:24;;;;;;;4.05;3.30;;;;;;;;;;5032836;28;20017;-79
2022/09/12 13:59:01;;;;;;;4.38;3.58;;;;;;;;;;5040779;28;20129;-78
2022/09/12 14:01:38;;;;;;;6.43;4.38;;;;;;;;;;5034879;28;20025;-79
2022/09/12 14:07:20;;;;;;;7.30;5.93;;;;;;;;;;5050644;28;20122;-78
2022/09/12 14:09:53;;;;;;;4.95;3.83;;;;;;;;;;5048331;28;20025;-79
2022/09/12 14:12:28;;;;;;;6.13;4.75;;;;;;;;;;5034190;28;20087;-79
2022/09/12 14:14:53;;;;;;;5.88;4.22;;;;;;;;;;5036132;28;20176;-77
2022/09/12 14:17:24;;;;;;;6.47;4.55;;;;;;;;;;5032053;28;20525;-79
2022/09/12 14:19:51;;;;;;;11.00;5.55;;;;;;;;;;5033233;28;20029;-78
2022/09/12 14:22:17;;;;;;;18.58;4.68;;;;;;;;;;5031975;28;20029;-79
2022/09/12 14:24:49;;;;;;;8.75;4.15;;;;;;;;;;5048036;28;20102;-79
2022/09/12 14:27:23;;;;;;;6.45;3.67;;;;;;;;;;5030553;28;20059;-79
2022/09/12 14:29:52;;;;;;;10.75;4.07;;;;;;;;;;5024146;28;20037;-79
2022/09/12 14:32:25;;;;;;;11.90;3.55;;;;;;;;;;5015992;28;20041;-75
2022/09/12 14:35:09;;;;;;;8.63;4.18;;;;;;;;;;5030270;28;20063;-78
2022/09/12 14:37:35;;;;;;;14.30;6.75;;;;;;;;;;5047743;28;20021;-78
2022/09/12 14:40:01;;;;;;;12.05;5.30;;;;;;;;;;5033755;28;20376;-78
2022/09/12 14:42:30;;;;;;;11.77;6.10;;;;;;;;;;5015146;28;20055;-78
2022/09/12 14:45:43;;;;;;;17.05;5.10;;;;;;;;;;5032309;28;20024;-80
2022/09/12 14:48:17;;;;;;;4.95;3.83;;;;;;;;;;4995293;28;20051;-80
2022/09/12 14:50:47;;;;;;;7.03;4.45;;;;;;;;;;5032634;28;20410;-79
2022/09/12 14:53:15;;;;;;;9.82;3.63;;;;;;;;;;5032170;28;20086;-80
2022/09/12 14:55:44;;;;;;;7.85;4.15;;;;;;;;;;5049639;28;20111;-78
2022/09/12 14:58:19;;;;;;;5.82;3.47;;;;;;;;;;5032598;28;20037;-78
2022/09/12 15:01:00;;;;;;;5.50;4.57;;;;;;;;;;5032315;28;20031;-79
2022/09/12 15:03:30;;;;;;;5.68;3.88;;;;;;;;;;5032572;28;20115;-79
2022/09/12 15:05:57;;;;;;;10.38;6.40;;;;;;;;;;5051852;28;20031;-80
2022/09/12 15:08:24;;;;;;;5.80;3.60;;;;;;;;;;5016686;28;20048;-80
2022/09/12 15:10:50;;;;;;;7.18;3.80;;;;;;;;;;5017221;28;20039;-79
2022/09/12 15:13:19;;;;;;;5.68;3.92;;;;;;;;;;5050423;28;20077;-79